Sagehen Creek Weather observations

Data are for observation ending at time listed.
 Day   Time    Ave.   Ave.  Ave.  Vector   Max.   Stn.    Total    Solar   Ave.  
  of    of     Air    Rel.  Wind   Wind    Wind   Baro.  Precip.   Rad.    Soil  
Year   Day     Temp.  Hum.  Speed  Dir.    Gust   Pres.                    Temp. 
2014   (PST)    F      %     mph   deg.    mph     mb.     in.     W/m2     F   
------------------------------------------------------------------------------
 209    0:00   51.4    56    0.2   251      0.9   841.1   10.47       0    999.0
 209    0:10   51.2    54    0.6   255      1.2   840.6   10.47       0    999.0
 209    0:20   50.8    53    0.4   254      1.0   840.8   10.47       0    999.0
 209    0:30   50.4    54    0.5   257      0.9   840.9   10.47       0    999.0
 209    0:40   50.1    55    0.1   248      0.7   840.8   10.47       0    999.0
 209    0:50   50.1    56    0.4   265      1.3   840.8   10.47       0    999.0
 209    1:00   50.3    56    0.3   263      1.0   840.7   10.47       0    999.0
 209    1:10   50.2    56    0.2   256      1.0   840.9   10.47       0    999.0
 209    1:20   49.7    55    0.0   252      0.3   840.6   10.47       0    999.0
 209    1:30   49.4    56    0.7   260      1.1   840.4   10.47       0    999.0
 209    1:40   48.9    57    0.4   257      1.0   840.6   10.47       0    999.0
 209    1:50   48.4    59    0.6   256      1.4   840.5   10.47       0    999.0
 209    2:00   47.9    59    0.3   271      0.8   840.3   10.47       0    999.0
 209    2:10   47.8    57    0.8   265      1.2   840.8   10.47       0    999.0
 209    2:20   47.4    59    0.0   262      0.5   840.7   10.47       0    999.0
 209    2:30   47.0    59    0.6   258      0.9   840.5   10.47       0    999.0
 209    2:40   46.9    60    0.7   258      1.1   840.8   10.47       0    999.0
 209    2:50   46.5    61    0.4   259      1.1   840.5   10.47       0    999.0
 209    3:00   46.3    60    0.7   261      1.3   840.2   10.47       0    999.0
 209    3:10   46.0    61    0.1   266      0.9   840.6   10.47       0    999.0
 209    3:20   45.8    61    0.6   256      0.9   840.4   10.47       0    999.0
 209    3:30   45.3    64    0.2   262      0.8   840.3   10.47       0    999.0
 209    3:40   45.3    61    1.1   259      2.0   840.8   10.47       0    999.0
 209    3:50   45.1    63    0.7   255      1.0   840.7   10.47       0    999.0
 209    4:00   44.9    62    0.8   265      1.2   840.7   10.47       0    999.0
 209    4:10   44.7    62    0.9   251      1.4   840.7   10.47       0    999.0
 209    4:20   44.4    64    0.3   254      0.9   840.6   10.47       0    999.0
 209    4:30   44.2    63    0.6   265      1.1   840.5   10.47       0    999.0
 209    4:40   44.1    64    0.5   232      1.3   840.3   10.47       0    999.0
 209    4:50   43.8    66    0.4   284      1.4   840.6   10.47       0    999.0
 209    5:00   43.6    68    0.0   255      0.5   840.8   10.47       2    999.0
 209    5:10   43.6    66    0.1   263      0.9   840.7   10.47       9    999.0
 209    5:20   43.8    64    0.2   262      0.6   840.8   10.47      22    999.0
 209    5:30   44.1    64    1.0   261      1.3   840.8   10.47      34    999.0
 209    5:40   44.5    68    0.1   260      1.1   840.8   10.47      52    999.0
 209    5:50   45.2    66    0.0     0      0.0   840.8   10.47      70    999.0
 209    6:00   46.1    65    0.3   276      1.2   840.7   10.47      56    999.0
 209    6:10   46.5    66    1.0   265      1.3   841.0   10.47      97    999.0
 209    6:20   48.0    67    0.0   277      0.5   841.0   10.47     185    999.0
 209    6:30   50.5    64    0.4   261      0.9   841.0   10.47     236    999.0
 209    6:40   53.1    62    0.1   246      0.3   841.1   10.47     265    999.0
 209    6:50   55.1    57    0.0     0      0.0   841.1   10.47     307    999.0
 209    7:00   58.7    54    0.9   107      3.1   841.1   10.47     362    999.0
 209    7:10   62.8    48    1.6    98      3.8   840.8   10.47     379    999.0
 209    7:20   64.1    46    1.3    96      3.0   841.1   10.47     252    999.0
 209    7:30   64.9    43    1.4   100      2.9   841.3   10.47     341    999.0
 209    7:40   66.6    36    1.6    96      3.7   841.3   10.47     408    999.0
 209    7:50   68.3    34    1.4    94      2.7   841.2   10.47     536    999.0
 209    8:00   70.4    31    1.5    96      2.3   841.1   10.47     545    999.0
 209    8:10   71.5    32    1.5    99      3.9   841.1   10.46     421    999.0
 209    8:20   71.3    32    2.1    93      3.6   841.1   10.46     353    999.0
 209    8:30   71.3    34    2.0    92      4.0   841.0   10.46     320    999.0
 209    8:40   72.1    33    2.0    90      3.5   840.9   10.46     480    999.0
 209    8:50   73.5    29    2.0    97      4.4   840.9   10.46     511    999.0
 209    9:00   73.9    30    2.3    90      5.2   840.8   10.46     483    999.0
 209    9:10   74.8    28    2.7    97      4.6   841.0   10.46     543    999.0
 209    9:20   75.5    26    3.1    94      4.9   841.0   10.46     648    999.0
 209    9:30   76.0    24    2.7   100      5.1   841.1   10.46     617    999.0
 209    9:40   77.3    23    2.8    90      5.8   841.1   10.46     665    999.0
 209    9:50   78.2    23    2.2   102      5.3   840.9   10.46     695    999.0
 209   10:00   79.1    22    1.8   104      4.0   840.8   10.46     703    999.0
 209   10:10   79.4    22    2.9   110      6.8   840.9   10.46     703    999.0
 209   10:20   79.6    22    2.2   115      3.3   840.8   10.46     665    999.0
 209   10:30   80.6    20    1.5    83      4.4   840.7   10.46     698    999.0
 209   10:40   81.1    21    2.4    79      6.0   840.8   10.46     742    999.0
 209   10:50   81.6    20    1.8   242      4.5   840.9   10.46     619    999.0
 209   11:00   80.3    23    1.9   254      3.5   840.9   10.46     570    999.0
 209   11:10   81.3    19    1.8   233      4.0   841.0   10.46     957    999.0
 209   11:20   82.6    20    1.7   216      4.4   841.0   10.46     527    999.0
 209   11:30   80.4    21    2.0   263      5.7   841.0   10.46     533    999.0
 209   11:40   81.8    19    1.5   246      3.2   840.9   10.46     754    999.0
 209   11:50   82.8    18    2.1   239      4.6   840.9   10.46     899    999.0
 209   12:00   82.3    19    2.9   240      7.6   840.9   10.46     436    999.0
 209   12:10   80.1    21    2.4   260      5.0   840.6   10.46     347    999.0
 209   12:20   80.0    22    2.0   256      6.6   840.5   10.46     606    999.0
 209   12:30   81.6    22    1.8   246      4.1   840.4   10.46     519    999.0
 209   12:40   81.1    22    1.9   239      6.3   840.7   10.46     692    999.0
 209   12:50   82.5    22    2.2   257      7.7   840.7   10.46     815    999.0
 209   13:00   82.5    21    2.0   252      3.3   840.7   10.46     477    999.0
 209   13:10   80.4    24    2.1   262      6.2   840.5   10.46     253    999.0
 209   13:20   78.9    24    1.9   235      4.5   840.6   10.46     232    999.0
 209   13:30   78.2    25    2.3   216      7.4   840.7   10.46     441    999.0
 209   13:40   81.2    23    2.4   250      7.6   840.3   10.46     845    999.0
 209   13:50   82.5    21    3.3   267      7.3   840.3   10.46     705    999.0
 209   14:00   81.2    23    2.2   272      5.7   840.4   10.46     438    999.0
 209   14:10   81.4    23    3.0   248      7.7   840.2   10.46     814    999.0
 209   14:20   82.5    22    2.4   251      6.1   840.2   10.46     727    999.0
 209   14:30   82.9    22    2.1   259      8.5   840.2   10.46     765    999.0
 209   14:40   82.5    21    2.6   293      6.1   840.2   10.46     740    999.0
 209   14:50   83.1    22    2.9   262      6.3   840.3   10.46     750    999.0
 209   15:00   82.7    23    2.8   259      7.9   840.3   10.46     616    999.0
 209   15:10   80.7    24    2.2   260      4.8   840.5   10.46     508    999.0
 209   15:20   81.8    25    3.2   261      5.8   840.5   10.46     724    999.0
 209   15:30   81.2    24    3.3   276      9.1   840.5   10.46     366    999.0
 209   15:40   79.0    27    2.8   272      8.1   840.5   10.46     362    999.0
 209   15:50   78.6    27    2.7   241      6.3   840.2   10.46     408    999.0
 209   16:00   78.8    28    2.6   221      5.7   840.0   10.46     428    999.0
 209   16:10   79.4    28    2.3   248      6.3   840.2   10.46     559    999.0
 209   16:20   80.6    26    2.5   246      8.1   840.1   10.46     447    999.0
 209   16:30   78.8    27    2.7   237      7.2   840.0   10.46     336    999.0
 209   16:40   78.0    27    1.8   221      6.3   840.0   10.46     217    999.0
 209   16:50   76.2    29    1.8   218      3.8   840.0   10.46     117    999.0
 209   17:00   75.1    30    1.2   230      3.6   840.0   10.46     131    999.0
 209   17:10   75.2    29    1.5   216      4.2   840.0   10.46     192    999.0
 209   17:20   75.2    28    1.2   213      5.3   840.3   10.46     105    999.0
 209   17:30   74.5    29    1.6   237      3.9   840.6   10.46      83    999.0
 209   17:40   73.6    31    1.4   211      3.6   840.4   10.46      49    999.0
 209   17:50   72.9    32    1.0   195      3.2   840.4   10.46      34    999.0
 209   18:00   72.5    32    0.3   183      2.0   840.4   10.46      22    999.0
 209   18:10   72.1    32    0.3   269      1.3   840.7   10.46      16    999.0
 209   18:20   71.6    34    0.6   254      2.4   840.7   10.46      12    999.0
 209   18:30   70.9    34    1.0   103      3.0   840.7   10.46      10    999.0
 209   18:40   71.1    34    1.9    55      4.8   841.0   10.46      12    999.0
 209   18:50   70.6    35    1.5    98      3.9   841.1   10.46      14    999.0
 209   19:00   69.9    37    0.1     5      1.2   841.1   10.46      12    999.0
 209   19:10   69.2    37    0.8   331      2.5   841.2   10.46       6    999.0
 209   19:20   68.6    40    0.4   211      1.9   840.9   10.46       7    999.0
 209   19:30   67.3    43    0.3   195      1.2   840.7   10.46       3    999.0
 209   19:40   66.4    45    0.0     0      0.0   841.1   10.46       0    999.0
 209   19:50   65.8    46    0.0   248      0.6   841.2   10.46       0    999.0
 209   20:00   65.2    48    0.1   247      0.4   841.3   10.46       0    999.0
 209   20:10   64.5    49    0.1   175      0.8   840.9   10.46       0    999.0
 209   20:20   63.8    50    0.0     0      0.0   840.9   10.46       0    999.0
 209   20:30   63.2    51    0.1   170      1.0   841.0   10.46       0    999.0
 209   20:40   62.6    53    0.1   172      0.8   841.6   10.46       0    999.0
 209   20:50   61.9    54    0.1   228      1.1   841.6   10.47       0    999.0
 209   21:00   61.3    54    0.5   103      1.5   841.6   10.46       0    999.0
 209   21:10   60.7    56    0.0   280      0.5   841.6   10.46       0    999.0
 209   21:20   59.9    57    0.1   175      0.6   841.6   10.46       0    999.0
 209   21:30   59.0    59    0.1   264      0.9   841.5   10.47       0    999.0
 209   21:40   58.3    60    0.1   206      0.7   841.5   10.47       0    999.0
 209   21:50   57.6    60    0.0   255      0.4   841.3   10.47       0    999.0
 209   22:00   57.0    60    0.1   242      0.8   841.2   10.47       0    999.0
 209   22:10   56.8    58    0.1   275      1.0   841.4   10.46       0    999.0
 209   22:20   56.3    60    0.0   292      0.5   841.2   10.47       0    999.0
 209   22:30   55.8    58    0.0   316      0.5   841.0   10.46       0    999.0
 209   22:40   55.3    60    0.0     0      0.0   841.0   10.47       0    999.0
 209   22:50   54.8    61    0.0     0      0.0   841.2   10.47       0    999.0
 209   23:00   54.4    61    0.0   264      0.5   841.5   10.47       0    999.0
 209   23:10   54.0    60    0.1   256      0.7   841.4   10.47       0    999.0
 209   23:20   53.7    61    0.0   275      0.5   841.1   10.47       0    999.0
 209   23:30   53.4    61    0.0   258      0.6   840.9   10.47       0    999.0
 209   23:40   53.0    61    0.1   275      1.4   840.9   10.47       0    999.0

Return to Sagehen Creek graphs page.


Western Regional Climate Center,wrcc@dri.edu